Time;durP1;ratioP1;P1;durP2;ratioP2;P2;SDS_P1;SDS_P2;PMS_P1;PMS_P2;Temp;Humidity;BMP_temperature;BMP_pressure;BME280_temperature;BME280_humidity;BME280_pressure;Samples;Min_cycle;Max_cycle;Signal;HPM_P1;HPM_P2
2023/10/23 00:00:55;;;;;;;33.85;20.58;;;;;;;15.83;100.00;102279.47;5023007;28;20037;-72
2023/10/23 00:03:21;;;;;;;27.45;18.83;;;;;;;15.82;100.00;102264.09;5018581;28;20071;-71
2023/10/23 00:05:46;;;;;;;28.60;19.02;;;;;;;15.45;100.00;102133.78;5014919;28;20071;-72
2023/10/23 00:08:12;;;;;;;30.17;18.08;;;;;;;16.21;100.00;102222.47;5017561;28;20420;-72
2023/10/23 00:10:37;;;;;;;27.27;17.50;;;;;;;16.19;100.00;102206.25;5018319;28;20033;-72
2023/10/23 00:13:03;;;;;;;29.52;18.02;;;;;;;15.27;100.00;102100.66;5014455;28;20042;-71
2023/10/23 00:15:28;;;;;;;30.42;18.02;;;;;;;15.51;100.00;102084.97;5010429;28;20163;-72
2023/10/23 00:17:53;;;;;;;26.88;18.17;;;;;;;16.00;100.00;102158.66;5012796;28;20113;-72
2023/10/23 00:20:20;;;;;;;28.23;17.20;;;;;;;15.43;100.00;102145.75;5018254;28;20033;-72
2023/10/23 00:22:45;;;;;;;27.85;18.67;;;;;;;15.52;100.00;102122.59;5017779;28;20029;-72
2023/10/23 00:25:11;;;;;;;30.30;20.27;;;;;;;15.14;100.00;102098.28;5008430;28;20030;-72
2023/10/23 00:27:36;;;;;;;33.10;22.25;;;;;;;15.88;100.00;102164.81;5022074;28;20037;-73
2023/10/23 00:30:02;;;;;;;42.65;29.35;;;;;;;15.11;100.00;102178.63;5016371;28;20026;-73
2023/10/23 00:32:27;;;;;;;43.65;29.02;;;;;;;15.46;100.00;102165.41;5013566;28;20041;-72
2023/10/23 00:34:53;;;;;;;39.17;29.10;;;;;;;15.50;100.00;102093.56;5012907;28;20022;-73
2023/10/23 00:37:18;;;;;;;40.53;28.77;;;;;;;15.18;100.00;102069.16;5018624;28;20049;-73
2023/10/23 00:39:43;;;;;;;38.83;28.25;;;;;;;15.29;100.00;102085.28;5017180;28;20489;-72
2023/10/23 00:42:09;;;;;;;38.00;28.23;;;;;;;15.25;100.00;102019.53;5014842;28;20033;-73
2023/10/23 00:44:34;;;;;;;37.47;26.67;;;;;;;16.06;100.00;102141.44;5013609;28;20034;-73
2023/10/23 00:47:00;;;;;;;33.78;26.48;;;;;;;15.92;100.00;102134.81;5017490;28;20136;-73
2023/10/23 00:49:26;;;;;;;38.40;27.17;;;;;;;15.77;100.00;102150.44;5019174;28;20384;-73
2023/10/23 00:51:51;;;;;;;37.30;25.80;;;;;;;15.72;100.00;102124.00;5020650;28;20058;-72
2023/10/23 00:54:19;;;;;;;33.53;25.52;;;;;;;15.64;100.00;102083.09;5014886;28;20047;-72
2023/10/23 00:56:45;;;;;;;36.88;27.23;;;;;;;14.87;100.00;102027.75;5020041;28;20053;-72
2023/10/23 00:59:11;;;;;;;39.70;26.60;;;;;;;15.49;100.00;102057.66;5018252;28;20099;-72
2023/10/23 01:01:37;;;;;;;37.78;26.25;;;;;;;15.32;100.00;102045.06;5016096;28;20088;-71
2023/10/23 01:04:04;;;;;;;35.35;25.73;;;;;;;15.66;100.00;102096.72;5012766;28;20030;-72
2023/10/23 01:06:30;;;;;;;32.30;24.13;;;;;;;15.86;100.00;102060.50;5016789;28;20072;-72
2023/10/23 01:08:56;;;;;;;33.50;25.55;;;;;;;15.65;100.00;102073.69;5019023;28;20038;-72
2023/10/23 01:11:22;;;;;;;32.90;25.65;;;;;;;15.24;100.00;102020.41;5017100;28;20723;-72
2023/10/23 01:13:47;;;;;;;33.72;23.98;;;;;;;15.51;100.00;102002.06;5017296;28;20125;-71
2023/10/23 01:16:12;;;;;;;35.53;25.55;;;;;;;15.60;100.00;102079.72;5017661;28;20060;-72
2023/10/23 01:18:38;;;;;;;34.28;24.65;;;;;;;15.37;100.00;102004.00;5018380;28;20471;-70
2023/10/23 01:21:03;;;;;;;34.70;24.38;;;;;;;15.55;100.00;102032.78;5007397;28;20117;-71
2023/10/23 01:23:34;;;;;;;39.47;25.30;;;;;;;15.22;100.00;102053.75;5017760;28;20041;-72
2023/10/23 01:26:00;;;;;;;37.90;25.70;;;;;;;15.33;100.00;102036.50;5012292;28;20029;-72
2023/10/23 01:28:25;;;;;;;37.03;26.50;;;;;;;14.90;100.00;101981.59;5002352;28;20342;-71
2023/10/23 01:30:50;;;;;;;37.75;27.10;;;;;;;14.84;100.00;102009.84;5006023;28;20029;-71
2023/10/23 01:33:16;;;;;;;35.97;26.55;;;;;;;14.85;100.00;102026.91;5017903;28;20421;-70
2023/10/23 01:35:41;;;;;;;40.15;29.17;;;;;;;15.20;100.00;102041.81;5018713;28;20056;-72
2023/10/23 01:38:07;;;;;;;41.20;27.88;;;;;;;14.85;100.00;102015.81;5011439;28;20040;-72
2023/10/23 01:40:32;;;;;;;41.85;29.20;;;;;;;15.12;100.00;102085.47;5023915;28;20036;-71
2023/10/23 01:42:58;;;;;;;46.25;27.80;;;;;;;14.92;100.00;102104.50;5004759;28;20035;-70
2023/10/23 01:45:23;;;;;;;42.55;29.25;;;;;;;14.71;100.00;102090.25;5020042;28;20041;-71
2023/10/23 01:47:49;;;;;;;41.05;29.52;;;;;;;14.38;100.00;102052.22;5018219;28;20037;-72
2023/10/23 01:50:14;;;;;;;33.95;28.25;;;;;;;14.40;100.00;102089.69;5021912;28;20030;-72
2023/10/23 01:52:41;;;;;;;42.53;29.13;;;;;;;14.81;100.00;102176.38;5008700;28;20037;-73
2023/10/23 01:55:07;;;;;;;43.35;27.88;;;;;;;14.36;100.00;102146.91;5008931;28;20058;-72
2023/10/23 01:57:32;;;;;;;42.75;28.13;;;;;;;14.63;100.00;102207.25;5008139;28;20030;-72
2023/10/23 02:00:04;;;;;;;40.40;29.15;;;;;;;14.28;100.00;102163.19;5013753;28;20037;-72
2023/10/23 02:02:30;;;;;;;;;;;;;;;14.86;100.00;102243.75;5016876;28;20026;-73
2023/10/23 02:04:55;;;;;;;43.72;28.15;;;;;;;14.28;100.00;102183.66;5018003;28;19916;-72
2023/10/23 02:07:21;;;;;;;39.85;28.33;;;;;;;14.56;100.00;102219.25;5012580;28;20053;-69
2023/10/23 02:09:46;;;;;;;41.22;28.30;;;;;;;14.50;100.00;102229.53;5014609;28;20080;-72
2023/10/23 02:12:11;;;;;;;40.50;27.23;;;;;;;14.86;100.00;102266.81;5019572;28;20038;-71
2023/10/23 02:14:37;;;;;;;40.65;27.65;;;;;;;14.70;100.00;102317.31;5014437;28;20029;-71
2023/10/23 02:17:02;;;;;;;41.92;26.77;;;;;;;14.54;100.00;102245.72;5011031;28;20029;-71
2023/10/23 02:19:29;;;;;;;41.65;27.10;;;;;;;15.07;100.00;102384.50;5007722;28;20439;-71
2023/10/23 02:21:54;;;;;;;38.45;26.65;;;;;;;15.14;100.00;102405.78;5001825;28;20035;-72
2023/10/23 02:24:20;;;;;;;39.47;26.92;;;;;;;14.59;100.00;102372.88;5014652;28;20065;-71
2023/10/23 02:26:46;;;;;;;36.67;25.77;;;;;;;14.57;100.00;102307.16;5015319;28;20532;-72
2023/10/23 02:29:12;;;;;;;39.92;25.55;;;;;;;14.66;100.00;102264.41;5023352;28;20030;-72
2023/10/23 02:31:38;;;;;;;35.78;26.23;;;;;;;14.76;100.00;102311.28;5006960;28;20151;-73
2023/10/23 02:34:04;;;;;;;37.47;26.42;;;;;;;14.43;100.00;102209.13;5018220;28;20104;-71
2023/10/23 02:36:29;;;;;;;35.05;26.45;;;;;;;14.97;100.00;102229.16;5021979;28;20481;-72
2023/10/23 02:38:55;;;;;;;41.08;28.45;;;;;;;14.92;100.00;102237.72;5022821;28;20033;-72
2023/10/23 02:41:20;;;;;;;45.42;28.67;;;;;;;14.50;100.00;102190.28;5007273;28;20123;-69
2023/10/23 02:43:46;;;;;;;35.13;26.42;;;;;;;14.47;100.00;102114.41;5017962;28;20060;-72
2023/10/23 02:46:12;;;;;;;38.67;26.98;;;;;;;15.13;100.00;102161.47;5019811;28;20040;-73
2023/10/23 02:48:38;;;;;;;37.42;25.90;;;;;;;14.84;100.00;102111.44;5018613;28;20037;-72
2023/10/23 02:51:03;;;;;;;41.40;27.05;;;;;;;14.78;100.00;102110.66;5022593;28;20148;-72
2023/10/23 02:53:30;;;;;;;42.15;28.25;;;;;;;14.08;100.00;102014.09;5018276;28;20022;-72
2023/10/23 02:55:55;;;;;;;43.55;27.20;;;;;;;14.34;100.00;101984.84;5018273;28;20063;-72
2023/10/23 02:58:21;;;;;;;40.05;26.33;;;;;;;13.87;100.00;101877.03;5022341;28;20504;-73
2023/10/23 03:00:46;;;;;;;41.20;27.67;;;;;;;14.42;100.00;101974.53;5017547;28;20029;-71
2023/10/23 03:03:12;;;;;;;40.95;27.10;;;;;;;14.62;100.00;101957.19;5007551;28;20034;-73
2023/10/23 03:05:38;;;;;;;41.28;28.42;;;;;;;14.20;100.00;101827.22;5016110;28;20053;-73
2023/10/23 03:08:04;;;;;;;45.45;29.25;;;;;;;14.50;100.00;101837.03;5013189;28;20029;-72
2023/10/23 03:10:31;;;;;;;40.50;27.25;;;;;;;14.60;100.00;101787.41;5009276;28;20042;-72
2023/10/23 03:12:56;;;;;;;40.42;27.30;;;;;;;14.09;100.00;101691.78;5019277;28;20542;-72
2023/10/23 03:15:21;;;;;;;37.63;26.83;;;;;;;14.66;100.00;101702.81;5019859;28;20084;-72
2023/10/23 03:17:47;;;;;;;40.40;28.00;;;;;;;14.22;100.00;101654.88;5011521;28;20499;-71
2023/10/23 03:20:12;;;;;;;37.63;27.92;;;;;;;14.10;100.00;101608.22;5010763;28;20033;-71
2023/10/23 03:22:38;;;;;;;35.50;26.35;;;;;;;14.09;100.00;101563.03;5018822;28;20038;-70
2023/10/23 03:25:05;;;;;;;36.92;26.55;;;;;;;14.22;100.00;101582.44;5016923;28;20029;-72
2023/10/23 03:27:32;;;;;;;41.25;26.60;;;;;;;14.44;100.00;101628.13;5013153;28;20488;-70
2023/10/23 03:29:57;;;;;;;39.70;25.00;;;;;;;14.44;100.00;101566.69;5014832;28;20035;-71
2023/10/23 03:32:23;;;;;;;36.75;25.38;;;;;;;14.55;100.00;101604.91;5013010;28;20108;-72
2023/10/23 03:34:49;;;;;;;33.45;24.75;;;;;;;14.19;100.00;101559.44;5012754;28;20420;-72
2023/10/23 03:37:14;;;;;;;35.80;25.02;;;;;;;14.59;100.00;101601.41;5015504;28;20040;-72
2023/10/23 03:39:40;;;;;;;40.63;25.90;;;;;;;14.58;100.00;101610.81;5005244;28;20030;-72
2023/10/23 03:42:05;;;;;;;40.58;25.38;;;;;;;14.77;100.00;101588.28;5017746;28;20022;-71
2023/10/23 03:44:31;;;;;;;36.42;25.13;;;;;;;14.48;100.00;101575.19;5013258;28;20048;-69
2023/10/23 03:46:56;;;;;;;38.60;25.45;;;;;;;14.45;100.00;101542.81;5020678;28;20033;-71
2023/10/23 03:49:21;;;;;;;34.10;24.60;;;;;;;14.46;100.00;101549.59;5018636;28;20429;-70
2023/10/23 03:51:47;;;;;;;33.75;25.70;;;;;;;14.44;100.00;101530.03;5006046;28;20390;-71
2023/10/23 03:54:12;;;;;;;39.08;26.30;;;;;;;14.44;100.00;101588.91;5009644;28;20582;-70
2023/10/23 03:56:38;;;;;;;32.85;21.77;;;;;;;15.71;100.00;101619.66;5017091;28;20037;-71
2023/10/23 03:59:04;;;;;;;39.55;27.80;;;;;;;14.15;100.00;101545.88;5020497;28;20029;-70
2023/10/23 04:01:30;;;;;;;47.78;28.65;;;;;;;13.65;100.00;101489.63;5007651;28;20545;-72
2023/10/23 04:03:55;;;;;;;43.03;27.23;;;;;;;13.94;100.00;101541.94;5015139;28;20125;-71
2023/10/23 04:06:21;;;;;;;38.40;26.60;;;;;;;14.34;100.00;101583.09;5016514;28;20476;-72
2023/10/23 04:08:46;;;;;;;40.03;26.45;;;;;;;14.50;100.00;101553.78;5014954;28;20026;-72
2023/10/23 04:11:15;;;;;;;37.00;26.10;;;;;;;14.53;100.00;101543.50;5018937;28;20022;-73
2023/10/23 04:13:40;;;;;;;38.15;27.08;;;;;;;14.54;100.00;101528.97;5016283;28;20145;-72
2023/10/23 04:16:06;;;;;;;43.58;28.02;;;;;;;14.50;100.00;101509.41;5015622;28;20117;-73
2023/10/23 04:18:31;;;;;;;40.00;26.77;;;;;;;14.61;100.00;101507.50;5014072;28;20117;-71
2023/10/23 04:21:08;;;;;;;41.67;28.70;;;;;;;14.17;100.00;101440.97;5007765;28;20038;-74
2023/10/23 04:23:34;;;;;;;42.80;27.75;;;;;;;14.16;100.00;101487.88;5007629;28;20049;-72
2023/10/23 04:26:00;;;;;;;50.58;28.63;;;;;;;14.32;100.00;101497.00;5018385;28;20057;-71
2023/10/23 04:28:25;;;;;;;43.35;27.80;;;;;;;14.40;100.00;101498.53;5015202;28;20068;-70
2023/10/23 04:30:51;;;;;;;37.60;28.05;;;;;;;14.58;100.00;101522.91;5006733;28;20026;-70
2023/10/23 04:33:21;;;;;;;39.05;26.90;;;;;;;14.58;100.00;101520.34;5023814;28;20116;-71
2023/10/23 04:35:50;;;;;;;37.78;26.90;;;;;;;14.44;100.00;101510.38;5017364;28;20025;-69
2023/10/23 04:38:15;;;;;;;37.63;27.15;;;;;;;14.36;100.00;101473.88;5008292;28;20106;-71
2023/10/23 04:40:42;;;;;;;40.90;27.83;;;;;;;13.80;100.00;101456.16;5016843;28;20489;-71
2023/10/23 04:43:08;;;;;;;39.33;26.45;;;;;;;14.19;100.00;101527.03;5008440;28;20033;-71
2023/10/23 04:45:34;;;;;;;44.40;27.85;;;;;;;14.00;100.00;101537.63;5001818;28;20480;-70
2023/10/23 04:48:00;;;;;;;43.05;27.75;;;;;;;14.31;100.00;101679.53;5017180;28;22274;-70
2023/10/23 04:50:25;;;;;;;44.25;26.13;;;;;;;14.69;100.00;101685.72;5013212;28;20556;-71
2023/10/23 04:52:51;;;;;;;40.03;26.33;;;;;;;14.47;100.00;101653.69;5018118;28;20034;-72
2023/10/23 04:55:16;;;;;;;42.92;28.23;;;;;;;14.28;100.00;101621.56;5007237;28;20041;-71
2023/10/23 04:57:42;;;;;;;47.75;27.33;;;;;;;14.36;100.00;101663.22;5016450;28;20535;-71
2023/10/23 05:00:08;;;;;;;43.80;27.23;;;;;;;14.01;100.00;101611.75;5021634;28;20041;-71
2023/10/23 05:02:33;;;;;;;41.85;28.17;;;;;;;14.38;100.00;101665.78;5004316;28;20030;-70
2023/10/23 05:04:58;;;;;;;44.42;26.75;;;;;;;13.73;100.00;101549.13;5014289;28;20091;-71
2023/10/23 05:07:24;;;;;;;41.72;27.08;;;;;;;14.51;100.00;101675.78;5006227;28;20034;-71
2023/10/23 05:09:49;;;;;;;42.90;26.38;;;;;;;14.51;100.00;101678.34;5009303;28;20452;-71
2023/10/23 05:12:15;;;;;;;39.38;26.95;;;;;;;13.92;100.00;101599.94;5011296;28;20506;-72
2023/10/23 05:14:40;;;;;;;46.67;26.98;;;;;;;14.14;100.00;101633.72;5024631;28;20037;-72
2023/10/23 05:17:06;;;;;;;49.28;26.95;;;;;;;14.34;100.00;101662.41;5016250;28;20033;-73
2023/10/23 05:19:31;;;;;;;36.83;25.98;;;;;;;15.28;100.00;101684.59;5017671;28;20041;-72
2023/10/23 05:21:57;;;;;;;44.15;26.17;;;;;;;15.92;100.00;101684.13;5021218;28;20446;-72
2023/10/23 05:24:22;;;;;;;49.67;27.02;;;;;;;15.77;100.00;101671.63;5024182;28;20041;-72
2023/10/23 05:26:48;;;;;;;50.50;27.50;;;;;;;15.89;100.00;101655.97;5017985;28;20159;-72
2023/10/23 05:29:13;;;;;;;45.80;29.23;;;;;;;14.77;100.00;101588.28;5009829;28;20038;-72
2023/10/23 05:31:39;;;;;;;44.20;28.05;;;;;;;14.87;100.00;101673.44;5008528;28;20109;-72
2023/10/23 05:34:06;;;;;;;48.70;27.20;;;;;;;15.03;100.00;101680.84;5021670;28;20411;-71
2023/10/23 05:36:32;;;;;;;46.22;28.67;;;;;;;14.99;100.00;101673.22;5022708;28;20044;-71
2023/10/23 05:38:57;;;;;;;48.10;28.85;;;;;;;15.44;100.00;101692.84;5005320;28;20030;-72
2023/10/23 05:41:23;;;;;;;50.83;28.42;;;;;;;16.60;100.00;101671.41;5023786;28;20055;-73
2023/10/23 05:43:48;;;;;;;52.58;27.95;;;;;;;18.40;100.00;101824.06;5017379;28;20125;-73
2023/10/23 05:46:15;;;;;;;62.05;32.67;;;;;;;19.26;100.00;102319.16;5019405;28;20057;-71
2023/10/23 05:48:40;;;;;;;49.50;31.33;;;;;;;19.83;100.00;102937.41;5021223;28;20037;-72
2023/10/23 05:51:06;;;;;;;48.28;30.25;;;;;;;20.20;100.00;103388.13;5017478;28;20099;-70
2023/10/23 05:53:32;;;;;;;56.67;31.95;;;;;;;20.21;100.00;103855.09;5016828;28;20041;-70
2023/10/23 05:56:04;;;;;;;57.22;31.70;;;;;;;17.63;100.00;103679.19;5014521;28;20026;-70
2023/10/23 05:58:33;;;;;;;49.67;31.88;;;;;;;17.72;100.00;103653.44;5021966;28;20037;-70
2023/10/23 06:01:09;;;;;;;48.38;31.40;;;;;;;16.40;100.00;103460.09;5015312;28;20156;-71
2023/10/23 06:03:35;;;;;;;50.55;30.92;;;;;;;16.69;100.00;103461.97;5003834;28;20481;-70
2023/10/23 06:06:01;;;;;;;56.17;32.85;;;;;;;16.62;100.00;103393.44;5018895;28;20109;-70
2023/10/23 06:08:26;;;;;;;51.75;31.35;;;;;;;17.07;100.00;103412.31;5008643;28;20121;-70
2023/10/23 06:10:53;;;;;;;51.65;30.98;;;;;;;16.12;100.00;103354.72;5018661;28;20045;-69
2023/10/23 06:13:20;;;;;;;53.63;29.63;;;;;;;15.63;100.00;103233.91;5022470;28;20427;-69
2023/10/23 06:15:46;;;;;;;47.63;29.58;;;;;;;16.32;100.00;103212.66;5020758;28;20040;-69
2023/10/23 06:18:11;;;;;;;45.60;27.33;;;;;;;16.72;100.00;103187.81;5015677;28;20120;-72
2023/10/23 06:20:37;;;;;;;39.42;26.83;;;;;;;17.08;100.00;103253.75;5004194;28;20039;-69
2023/10/23 06:23:03;;;;;;;43.33;25.70;;;;;;;17.00;100.00;103246.06;5016256;28;20037;-70
2023/10/23 06:25:29;;;;;;;35.47;23.63;;;;;;;16.80;100.00;103186.09;5008763;28;20033;-69
2023/10/23 06:27:55;;;;;;;37.67;22.95;;;;;;;17.39;100.00;103208.22;5020536;28;20044;-70
2023/10/23 06:30:21;;;;;;;35.80;22.20;;;;;;;17.78;100.00;103287.88;5021196;28;20029;-71
2023/10/23 06:32:47;;;;;;;39.10;23.38;;;;;;;18.26;100.00;103341.72;5009173;28;20467;-69
2023/10/23 06:35:12;;;;;;;43.78;24.13;;;;;;;17.95;100.00;103356.44;5017653;28;20368;-70
2023/10/23 06:37:38;;;;;;;37.97;23.27;;;;;;;18.30;100.00;103422.41;5016174;28;20038;-71
2023/10/23 06:40:04;;;;;;;35.85;23.33;;;;;;;18.44;100.00;103496.25;5014324;28;20448;-72
2023/10/23 06:42:30;;;;;;;41.65;24.08;;;;;;;17.81;100.00;103408.84;5016486;28;20492;-71
2023/10/23 06:44:57;;;;;;;38.80;22.95;;;;;;;18.19;100.00;103463.66;5010817;28;20022;-71
2023/10/23 06:47:22;;;;;;;34.42;22.27;;;;;;;18.77;100.00;103560.59;5017297;28;20033;-72
2023/10/23 06:49:48;;;;;;;41.22;21.48;;;;;;;18.78;100.00;103582.91;5007008;28;20096;-71
2023/10/23 06:52:13;;;;;;;36.20;20.80;;;;;;;18.99;100.00;103561.34;5004965;28;20033;-71
2023/10/23 06:54:39;;;;;;;37.72;20.67;;;;;;;19.30;100.00;103725.47;5013997;28;20049;-71
2023/10/23 06:57:08;;;;;;;34.88;21.38;;;;;;;18.98;100.00;103954.31;5016889;28;20038;-69
2023/10/23 06:59:34;;;;;;;39.08;21.33;;;;;;;19.55;100.00;104351.19;5008893;28;20029;-71
2023/10/23 07:02:00;;;;;;;39.33;21.55;;;;;;;19.57;100.00;104584.53;5009106;28;20109;-71
2023/10/23 07:04:26;;;;;;;41.83;21.85;;;;;;;19.92;100.00;104614.09;5005873;28;20138;-70
2023/10/23 07:06:53;;;;;;;44.88;22.92;;;;;;;19.48;100.00;104648.97;5001341;28;20065;-70
2023/10/23 07:09:18;;;;;;;48.88;27.48;;;;;;;19.99;100.00;104695.97;5006369;28;20029;-71
2023/10/23 07:11:46;;;;;;;58.25;31.02;;;;;;;19.81;100.00;104649.28;5017966;28;20393;-71
2023/10/23 07:14:13;;;;;;;58.95;32.95;;;;;;;20.17;100.00;104809.91;5013116;28;20544;-71
2023/10/23 07:16:39;;;;;;;50.25;30.90;;;;;;;20.42;100.00;104830.00;4997522;28;20405;-70
2023/10/23 07:19:04;;;;;;;56.28;31.60;;;;;;;20.45;100.00;104808.47;5013035;28;20037;-71
2023/10/23 07:21:30;;;;;;;37.75;21.70;;;;;;;20.39;100.00;104783.41;5021125;28;20033;-71
2023/10/23 07:23:56;;;;;;;28.92;17.02;;;;;;;20.34;100.00;104779.06;5014582;28;20029;-72
2023/10/23 07:26:21;;;;;;;34.40;19.42;;;;;;;19.79;100.00;104693.22;5012888;28;20087;-71
2023/10/23 07:28:47;;;;;;;29.88;18.60;;;;;;;20.28;100.00;104759.16;5018536;28;20038;-71
2023/10/23 07:31:13;;;;;;;36.28;18.55;;;;;;;19.87;100.00;104690.69;5018087;28;20030;-71
2023/10/23 07:33:38;;;;;;;37.25;19.17;;;;;;;20.15;100.00;104738.34;5019570;28;20065;-71
2023/10/23 07:36:05;;;;;;;30.60;18.58;;;;;;;20.32;100.00;104758.34;5013008;28;20040;-70
2023/10/23 07:38:30;;;;;;;30.95;19.58;;;;;;;20.27;100.00;104770.38;5019863;28;20029;-70
2023/10/23 07:40:57;;;;;;;32.80;20.08;;;;;;;20.22;100.00;104748.81;5018582;28;20087;-70
2023/10/23 07:43:23;;;;;;;34.38;20.50;;;;;;;20.63;100.00;104798.28;5018034;28;20034;-70
2023/10/23 07:45:49;;;;;;;31.65;21.30;;;;;;;19.94;100.00;104666.66;5013873;28;20062;-70
2023/10/23 07:48:14;;;;;;;34.85;21.20;;;;;;;20.95;100.00;104757.94;5007196;28;20064;-70
2023/10/23 07:50:40;;;;;;;37.60;21.08;;;;;;;20.69;100.00;104666.34;5018397;28;20065;-71
2023/10/23 07:53:06;;;;;;;38.95;21.75;;;;;;;20.64;100.00;104611.09;5008342;28;20038;-72
2023/10/23 07:55:31;;;;;;;31.80;21.20;;;;;;;20.61;100.00;104580.94;5002951;28;20036;-70
2023/10/23 07:57:56;;;;;;;38.80;21.92;;;;;;;20.20;100.00;104522.97;5012330;28;20029;-70
2023/10/23 08:00:22;;;;;;;37.15;21.45;;;;;;;21.16;100.00;104601.84;5004454;28;20084;-70
2023/10/23 08:02:47;;;;;;;28.45;18.10;;;;;;;20.94;100.00;104512.00;5020832;28;20022;-70
2023/10/23 08:05:13;;;;;;;26.88;17.50;;;;;;;20.54;100.00;104448.97;5020477;28;20396;-70
2023/10/23 08:07:38;;;;;;;33.97;16.67;;;;;;;20.32;100.00;104439.41;5001831;28;20033;-70
2023/10/23 08:10:04;;;;;;;31.70;16.20;;;;;;;20.55;100.00;104468.78;5014396;28;21444;-71
2023/10/23 08:12:30;;;;;;;37.65;16.35;;;;;;;19.98;100.00;104430.63;5020659;28;20057;-71
2023/10/23 08:14:56;;;;;;;28.58;16.13;;;;;;;20.59;100.00;104502.44;5019094;28;20034;-72
2023/10/23 08:17:21;;;;;;;34.42;17.10;;;;;;;20.46;100.00;104499.81;5006929;28;20033;-72
2023/10/23 08:19:46;;;;;;;28.73;16.00;;;;;;;20.45;100.00;104467.91;5020080;28;20094;-71
2023/10/23 08:22:12;;;;;;;27.73;16.25;;;;;;;20.72;100.00;104491.25;5005505;28;20045;-71
2023/10/23 08:24:37;;;;;;;29.20;16.85;;;;;;;19.82;100.00;104359.06;5003919;28;20042;-71
2023/10/23 08:27:03;;;;;;;30.20;17.58;;;;;;;20.17;100.00;104441.91;5004845;28;20115;-71
2023/10/23 08:29:28;;;;;;;33.85;17.95;;;;;;;20.40;100.00;104472.19;5019517;28;20041;-71
2023/10/23 08:31:54;;;;;;;34.03;18.77;;;;;;;20.54;100.00;104459.31;5014279;28;20030;-72
2023/10/23 08:34:21;;;;;;;36.35;17.27;;;;;;;20.85;100.00;104460.22;5003046;28;20040;-70
2023/10/23 08:36:49;;;;;;;37.58;17.63;;;;;;;21.17;100.00;104464.59;5016925;28;20033;-71
2023/10/23 08:39:15;;;;;;;36.22;19.80;;;;;;;21.22;100.00;104402.44;5015227;28;20152;-72
2023/10/23 08:41:40;;;;;;;32.83;19.70;;;;;;;20.70;100.00;104251.47;5005102;28;20156;-69
2023/10/23 08:44:06;;;;;;;47.45;26.08;;;;;;;21.68;100.00;104328.91;5009574;28;20026;-69
2023/10/23 08:46:34;;;;;;;33.95;20.90;;;;;;;21.40;100.00;104234.03;5009889;28;20025;-69
2023/10/23 08:49:03;;;;;;;35.90;19.80;;;;;;;21.74;100.00;104206.22;5009227;28;20049;-69
2023/10/23 08:51:30;;;;;;;36.78;19.33;;;;;;;21.10;100.00;104084.00;5010126;28;20440;-70
2023/10/23 08:54:07;;;;;;;35.45;20.67;;;;;;;21.83;100.00;104147.41;5008377;28;20036;-68
2023/10/23 08:56:37;;;;;;;40.28;20.35;;;;;;;21.55;100.00;104032.72;5018933;28;20463;-68
2023/10/23 08:59:03;;;;;;;31.95;20.00;;;;;;;22.05;100.00;104115.25;5007643;28;20095;-69
2023/10/23 09:01:29;;;;;;;28.52;17.73;;;;;;;21.70;100.00;104129.34;5009274;28;20164;-71
2023/10/23 09:03:55;;;;;;;34.08;18.92;;;;;;;21.84;100.00;104086.94;5024039;28;20124;-70
2023/10/23 09:06:20;;;;;;;31.40;18.92;;;;;;;22.18;100.00;103752.94;5008680;28;20060;-70
2023/10/23 09:08:46;;;;;;;33.00;19.58;;;;;;;22.12;100.00;103645.00;5020845;28;20030;-70
2023/10/23 09:11:13;;;;;;;29.48;17.73;;;;;;;22.57;100.00;103209.13;5019745;28;20044;-72
2023/10/23 09:13:40;;;;;;;41.15;22.70;;;;;;;22.10;100.00;103066.03;5003165;28;20667;-70
2023/10/23 09:16:07;;;;;;;38.00;24.92;;;;;;;22.86;100.00;103056.09;5008646;28;20416;-70
2023/10/23 09:18:33;;;;;;;33.40;19.35;;;;;;;22.60;100.00;102947.06;5010204;28;20172;-70
2023/10/23 09:20:59;;;;;;;36.15;22.20;;;;;;;22.01;100.00;102908.13;5010027;28;20030;-70
2023/10/23 09:23:25;;;;;;;43.17;22.30;;;;;;;22.88;100.00;102987.69;5010095;28;20044;-71
2023/10/23 09:25:59;;;;;;;39.50;25.98;;;;;;;22.50;100.00;102896.34;5009534;28;20524;-74
2023/10/23 09:28:28;;;;;;;40.25;25.90;;;;;;;22.73;100.00;102844.59;5010658;28;20034;-72
2023/10/23 09:30:54;;;;;;;39.88;24.10;;;;;;;23.08;100.00;102854.66;5010791;28;20037;-72
2023/10/23 09:33:19;;;;;;;49.00;25.90;;;;;;;23.16;100.00;102817.16;5009964;28;20038;-72
2023/10/23 09:35:46;;;;;;;38.08;23.08;;;;;;;22.60;100.00;102713.59;5008506;28;20076;-72
2023/10/23 09:38:15;;;;;;;33.97;19.58;;;;;;;23.32;100.00;102721.38;5009687;28;20072;-73
2023/10/23 09:40:43;;;;;;;35.85;19.60;;;;;;;23.98;100.00;102627.81;5009929;28;20068;-72
2023/10/23 09:43:08;;;;;;;42.47;19.90;;;;;;;23.76;100.00;102496.19;5010192;28;20030;-72
2023/10/23 09:45:36;;;;;;;36.72;21.27;;;;;;;24.14;100.00;102473.78;5009707;28;20572;-71
2023/10/23 09:48:03;;;;;;;34.67;20.38;;;;;;;23.54;100.00;102363.75;5010167;28;20056;-71
2023/10/23 09:50:30;;;;;;;32.33;19.33;;;;;;;23.81;100.00;102333.13;5006765;28;20040;-73
2023/10/23 09:52:57;;;;;;;33.67;18.90;;;;;;;24.01;100.00;102278.44;5009919;28;20196;-72
2023/10/23 09:55:27;;;;;;;31.60;17.95;;;;;;;24.40;100.00;102202.91;5008440;28;20402;-71
2023/10/23 09:57:54;;;;;;;31.00;16.17;;;;;;;24.55;100.00;102140.53;5009487;28;20117;-74
2023/10/23 10:00:20;;;;;;;32.05;14.50;;;;;;;24.49;100.00;102056.72;5009345;28;20034;-72
2023/10/23 10:02:58;;;;;;;32.40;14.68;;;;;;;24.47;100.00;101991.78;5006851;28;20097;-73
2023/10/23 10:05:36;;;;;;;28.52;13.32;;;;;;;25.09;100.00;101943.25;5007525;28;20134;-73
2023/10/23 10:08:07;;;;;;;29.42;12.82;;;;;;;25.05;100.00;101874.91;5008544;28;20068;-72
2023/10/23 10:10:35;;;;;;;28.52;12.60;;;;;;;24.56;100.00;101743.28;5009332;28;20032;-73
2023/10/23 10:13:03;;;;;;;25.77;11.88;;;;;;;24.97;100.00;101792.94;5008079;28;20046;-73
2023/10/23 10:15:30;;;;;;;31.05;12.80;;;;;;;25.18;100.00;101735.22;5007887;28;20030;-71
2023/10/23 10:17:56;;;;;;;24.83;10.85;;;;;;;25.28;100.00;101666.00;5009153;28;20531;-72
2023/10/23 10:20:23;;;;;;;26.15;10.63;;;;;;;25.77;100.00;101674.19;5007982;28;20033;-72
2023/10/23 10:23:08;;;;;;;25.27;10.13;;;;;;;25.57;100.00;101599.91;5008948;28;20037;-70
2023/10/23 10:25:35;;;;;;;22.23;9.60;;;;;;;25.49;100.00;101536.22;5004452;28;20080;-72
2023/10/23 10:28:05;;;;;;;26.00;10.63;;;;;;;25.79;100.00;101487.25;5008912;28;20556;-72
2023/10/23 10:30:41;;;;;;;23.45;10.07;;;;;;;25.56;100.00;101405.41;5009426;28;20091;-72
2023/10/23 10:33:08;;;;;;;25.92;9.80;;;;;;;25.92;100.00;101445.56;5008662;28;20493;-73
2023/10/23 10:35:34;;;;;;;20.48;9.43;;;;;;;25.75;100.00;101421.47;5008683;28;20049;-70
2023/10/23 10:38:00;;;;;;;20.10;9.43;;;;;;;26.17;100.00;101407.28;5007343;28;20477;-70
2023/10/23 10:40:25;;;;;;;23.55;9.20;;;;;;;25.96;100.00;101348.78;5008796;28;20819;-70
2023/10/23 10:42:51;;;;;;;19.67;8.85;;;;;;;26.08;100.00;101353.19;5009688;28;20141;-71
2023/10/23 10:45:17;;;;;;;20.88;9.35;;;;;;;26.60;100.00;101350.28;5013051;28;20113;-70
2023/10/23 10:47:53;;;;;;;24.95;10.00;;;;;;;26.42;100.00;101279.38;5008753;28;20092;-70
2023/10/23 10:50:38;;;;;;;27.20;9.90;;;;;;;26.49;100.00;101271.94;5005939;28;20060;-71
2023/10/23 10:53:05;;;;;;;22.23;8.88;;;;;;;26.19;100.00;101199.34;5008226;28;20050;-71
2023/10/23 10:55:33;;;;;;;24.63;8.48;;;;;;;26.62;100.00;101202.25;5008370;28;20038;-71
2023/10/23 10:57:59;;;;;;;25.17;9.30;;;;;;;26.47;100.00;101162.47;5004299;28;20037;-73